createdAt,value
2023-01-22T00:02:22.829Z,-1.24
2023-01-22T00:04:49.641Z,-1.31
2023-01-22T00:07:16.597Z,-1.54
2023-01-22T00:09:43.187Z,-1.46
2023-01-22T00:12:09.947Z,-1.21
2023-01-22T00:14:37.660Z,-1.28
2023-01-22T00:17:04.601Z,-1.41
2023-01-22T00:19:31.203Z,-1.61
2023-01-22T00:21:57.945Z,-1.63
2023-01-22T00:24:24.818Z,-1.62
2023-01-22T00:26:51.730Z,-1.65
2023-01-22T00:29:18.426Z,-1.60
2023-01-22T00:31:45.148Z,-1.60
2023-01-22T00:34:12.181Z,-1.61
2023-01-22T00:36:39.720Z,-1.69
2023-01-22T00:39:06.676Z,-1.65
2023-01-22T00:41:34.339Z,-1.63
2023-01-22T00:44:03.978Z,-1.61
2023-01-22T00:46:32.956Z,-1.58
2023-01-22T00:48:59.788Z,-1.52
2023-01-22T00:51:26.350Z,-1.53
2023-01-22T00:56:37.916Z,-1.34
2023-01-22T00:59:06.086Z,-1.56
2023-01-22T01:01:35.271Z,-1.64
2023-01-22T01:04:02.294Z,-1.56
2023-01-22T01:06:29.949Z,-1.71
2023-01-22T01:08:56.722Z,-1.55
2023-01-22T01:11:24.043Z,-1.56
2023-01-22T01:13:50.904Z,-1.67
2023-01-22T01:16:17.558Z,-1.64
2023-01-22T01:18:46.939Z,-1.59
2023-01-22T01:21:13.711Z,-1.79
2023-01-22T01:23:40.543Z,-1.82
2023-01-22T01:26:07.640Z,-1.87
2023-01-22T01:28:35.176Z,-1.88
2023-01-22T01:31:02.211Z,-1.79
2023-01-22T01:33:29.016Z,-1.84
2023-01-22T01:35:56.957Z,-1.97
2023-01-22T01:38:23.723Z,-1.97
2023-01-22T01:40:50.670Z,-2.01
2023-01-22T01:43:18.241Z,-2.02
2023-01-22T01:45:44.736Z,-2.13
2023-01-22T01:48:13.936Z,-1.97
2023-01-22T01:50:40.878Z,-1.98
2023-01-22T01:53:10.156Z,-1.98
2023-01-22T01:55:37.091Z,-2.09
2023-01-22T01:58:06.028Z,-1.92
2023-01-22T02:00:32.911Z,-1.84
2023-01-22T02:03:00.478Z,-1.76
2023-01-22T02:05:27.441Z,-1.87
2023-01-22T02:07:56.369Z,-1.93
2023-01-22T02:10:23.000Z,-1.92
2023-01-22T02:12:57.035Z,-1.98
2023-01-22T02:15:24.337Z,-1.79
2023-01-22T02:17:51.840Z,-1.65
2023-01-22T02:20:25.854Z,-1.81
2023-01-22T02:22:52.568Z,-1.77
2023-01-22T02:25:19.420Z,-0.95
2023-01-22T02:27:45.939Z,-1.20
2023-01-22T02:30:13.425Z,-1.26
2023-01-22T02:32:40.193Z,-1.10
2023-01-22T02:35:07.111Z,-0.74
2023-01-22T02:37:33.640Z,-1.05
2023-01-22T02:40:01.431Z,-1.00
2023-01-22T02:42:30.371Z,-0.79
2023-01-22T02:44:57.467Z,-0.36
2023-01-22T02:47:24.355Z,-0.43
2023-01-22T02:49:51.253Z,-0.71
2023-01-22T02:52:19.370Z,-1.27
2023-01-22T02:54:46.107Z,-1.19
2023-01-22T02:57:13.202Z,-0.95
2023-01-22T02:59:40.119Z,-0.65
2023-01-22T03:02:06.729Z,0.02
2023-01-22T03:04:33.727Z,-1.12
2023-01-22T03:07:00.324Z,-0.98
2023-01-22T03:12:42.749Z,-1.05
2023-01-22T03:15:09.605Z,-1.01
2023-01-22T03:17:36.493Z,-0.95
2023-01-22T03:20:03.308Z,-1.04
2023-01-22T03:22:29.904Z,-1.21
2023-01-22T03:27:40.860Z,-1.34
2023-01-22T03:30:07.451Z,-1.36
2023-01-22T03:32:34.230Z,-1.27
2023-01-22T03:35:01.177Z,-1.43
2023-01-22T03:37:27.706Z,-1.29
2023-01-22T03:39:59.563Z,-1.22
2023-01-22T03:42:26.773Z,-1.08
2023-01-22T03:44:53.677Z,-1.20
2023-01-22T03:47:20.885Z,-1.31
2023-01-22T03:49:47.753Z,-1.41
2023-01-22T03:52:14.560Z,-1.58
2023-01-22T03:54:41.529Z,-1.42
2023-01-22T03:57:10.425Z,-1.29
2023-01-22T03:59:36.980Z,-1.48
2023-01-22T04:02:04.323Z,-1.32
2023-01-22T04:04:31.036Z,-1.33
2023-01-22T04:06:58.006Z,-1.21
2023-01-22T04:09:24.847Z,-1.10
2023-01-22T04:11:51.422Z,-0.88
2023-01-22T04:14:20.463Z,-0.97
2023-01-22T04:16:47.179Z,-1.10
2023-01-22T04:19:13.763Z,-0.99
2023-01-22T04:21:40.500Z,-1.28
2023-01-22T04:26:57.667Z,-0.60
2023-01-22T04:29:24.579Z,-0.47
2023-01-22T04:31:54.400Z,-0.16
2023-01-22T04:34:21.174Z,-0.71
2023-01-22T04:36:47.855Z,-1.08
2023-01-22T04:39:14.517Z,-1.11
2023-01-22T04:41:41.385Z,-1.20
2023-01-22T04:44:08.183Z,-1.03
2023-01-22T04:46:36.785Z,-1.23
2023-01-22T04:49:03.653Z,-0.93
2023-01-22T04:51:30.518Z,-0.88
2023-01-22T04:56:50.107Z,-0.49
2023-01-22T04:59:16.870Z,-0.94
2023-01-22T05:01:44.190Z,-0.81
2023-01-22T05:04:13.771Z,-0.34
2023-01-22T05:06:41.301Z,-0.63
2023-01-22T05:09:07.991Z,-1.04
2023-01-22T05:11:34.582Z,-1.32
2023-01-22T05:14:01.394Z,-1.33
2023-01-22T05:16:28.300Z,-1.52
2023-01-22T05:18:54.867Z,-1.43
2023-01-22T05:21:23.754Z,-1.24
2023-01-22T05:23:50.632Z,-1.58
2023-01-22T05:26:18.184Z,-1.29
2023-01-22T05:28:47.191Z,-1.37
2023-01-22T05:31:14.141Z,-1.45
2023-01-22T05:33:40.985Z,-1.34
2023-01-22T05:36:08.201Z,-1.68
2023-01-22T05:38:36.074Z,-1.47
2023-01-22T05:41:02.951Z,-1.26
2023-01-22T05:43:29.837Z,-1.32
2023-01-22T05:45:56.670Z,-1.52
2023-01-22T05:48:23.516Z,-1.56
2023-01-22T05:50:50.515Z,-1.47
2023-01-22T05:53:17.407Z,-1.48
2023-01-22T05:55:44.306Z,-1.61
2023-01-22T05:58:13.287Z,-1.74
2023-01-22T06:00:40.184Z,-1.75
2023-01-22T06:03:06.692Z,-1.97
2023-01-22T06:05:33.301Z,-1.89
2023-01-22T06:08:02.340Z,-1.86
2023-01-22T06:10:28.967Z,-1.67
2023-01-22T06:12:57.257Z,-1.72
2023-01-22T06:15:24.918Z,-1.83
2023-01-22T06:17:51.734Z,-1.88
2023-01-22T06:20:18.642Z,-1.83
2023-01-22T06:22:47.835Z,-1.72
2023-01-22T06:25:14.682Z,-1.63
2023-01-22T06:27:41.551Z,-1.41
2023-01-22T06:30:08.888Z,-1.62
2023-01-22T06:32:37.924Z,-1.49
2023-01-22T06:35:07.005Z,-1.59
2023-01-22T06:37:33.591Z,-1.57
2023-01-22T06:40:02.690Z,-1.61
2023-01-22T06:42:29.296Z,-1.66
2023-01-22T06:44:56.220Z,-1.58
2023-01-22T06:47:30.303Z,-1.55
2023-01-22T06:49:57.649Z,-1.61
2023-01-22T06:52:24.443Z,-1.36
2023-01-22T06:54:51.263Z,-1.66
2023-01-22T06:57:18.603Z,-1.77
2023-01-22T06:59:45.569Z,-1.70
2023-01-22T07:02:12.517Z,-1.59
2023-01-22T07:04:39.481Z,-1.31
2023-01-22T07:07:10.396Z,-1.37
2023-01-22T07:09:37.064Z,-1.33
2023-01-22T07:12:05.530Z,-1.28
2023-01-22T07:14:36.753Z,-1.34
2023-01-22T07:17:04.453Z,-1.10
2023-01-22T07:19:31.335Z,-1.48
2023-01-22T07:21:59.483Z,-1.38
2023-01-22T07:24:26.056Z,-1.43
2023-01-22T07:26:53.453Z,-1.57
2023-01-22T07:29:19.979Z,-1.56
2023-01-22T07:31:49.375Z,-1.66
2023-01-22T07:34:16.635Z,-1.60
2023-01-22T07:36:43.219Z,-1.66
2023-01-22T07:39:10.269Z,-1.71
2023-01-22T07:41:37.828Z,-1.28
2023-01-22T07:44:05.382Z,-1.35
2023-01-22T07:46:34.029Z,-1.51
2023-01-22T07:49:00.647Z,-1.32
2023-01-22T07:51:27.664Z,-1.22
2023-01-22T07:53:54.564Z,-1.01
2023-01-22T07:56:23.672Z,-0.95
2023-01-22T07:58:50.348Z,-1.38
2023-01-22T08:01:17.260Z,-1.38
2023-01-22T08:06:36.576Z,-1.32
2023-01-22T08:09:03.948Z,-1.30
2023-01-22T08:11:30.777Z,-1.33
2023-01-22T08:13:57.670Z,-1.20
2023-01-22T08:16:24.460Z,-1.22
2023-01-22T08:18:51.435Z,-1.00
2023-01-22T08:24:07.205Z,-0.77
2023-01-22T08:26:33.804Z,-0.89
2023-01-22T08:29:04.247Z,-0.90
2023-01-22T08:31:32.155Z,-0.92
2023-01-22T08:33:59.055Z,-0.97
2023-01-22T08:36:25.878Z,-1.04
2023-01-22T08:38:52.413Z,-1.01
2023-01-22T08:41:19.113Z,-1.11
2023-01-22T08:43:45.686Z,-1.18
2023-01-22T08:46:12.368Z,-1.22
2023-01-22T08:48:41.525Z,-1.26
2023-01-22T08:51:09.152Z,-1.16
2023-01-22T08:53:35.914Z,-1.12
2023-01-22T08:56:02.638Z,-1.19
2023-01-22T08:58:29.510Z,-1.26
2023-01-22T09:00:57.805Z,-1.10
2023-01-22T09:03:24.769Z,-0.99
2023-01-22T09:05:51.383Z,-0.94
2023-01-22T09:08:19.006Z,-0.90
2023-01-22T09:10:45.791Z,-0.47
2023-01-22T09:13:12.534Z,-0.61
2023-01-22T09:15:46.600Z,-0.98
2023-01-22T09:18:13.324Z,-0.83
2023-01-22T09:20:42.927Z,-0.85
2023-01-22T09:23:09.644Z,-0.71
2023-01-22T09:28:51.505Z,-1.04
2023-01-22T09:31:18.325Z,-0.79
2023-01-22T09:33:45.233Z,-0.47
2023-01-22T09:36:12.159Z,-0.58
2023-01-22T09:41:51.305Z,-0.78
2023-01-22T09:44:18.185Z,-0.87
2023-01-22T09:46:45.502Z,-0.58
2023-01-22T09:52:29.069Z,-0.62
2023-01-22T09:55:41.483Z,-0.64
2023-01-22T10:07:05.322Z,0.37
2023-01-22T10:09:31.992Z,0.88
2023-01-22T10:11:59.261Z,0.09
2023-01-22T10:14:26.194Z,0.36
2023-01-22T10:16:56.143Z,0.30
2023-01-22T10:19:22.784Z,0.18
2023-01-22T10:21:50.568Z,0.09
2023-01-22T10:24:19.016Z,0.24
2023-01-22T10:26:45.967Z,0.44
2023-01-22T10:29:15.532Z,1.07
2023-01-22T10:31:46.057Z,1.32
2023-01-22T10:34:24.501Z,1.37
2023-01-22T10:37:07.586Z,1.99
2023-01-22T10:39:34.105Z,2.34
2023-01-22T10:42:01.580Z,2.85
2023-01-22T10:44:29.929Z,1.63
2023-01-22T10:46:56.558Z,1.41
2023-01-22T10:49:23.369Z,2.15
2023-01-22T10:51:50.735Z,2.65
2023-01-22T10:54:17.381Z,1.91
2023-01-22T10:56:44.274Z,1.20
2023-01-22T10:59:12.014Z,1.69
2023-01-22T11:01:46.029Z,1.03
2023-01-22T11:04:13.185Z,1.67
2023-01-22T11:06:39.812Z,1.38
2023-01-22T11:09:10.760Z,1.39
2023-01-22T11:11:44.855Z,1.75
2023-01-22T11:14:12.576Z,1.59
2023-01-22T11:16:39.997Z,1.38
2023-01-22T11:19:13.371Z,1.10
2023-01-22T11:21:47.440Z,1.23
2023-01-22T11:24:14.148Z,1.30
2023-01-22T11:26:43.668Z,1.16
2023-01-22T11:29:10.845Z,1.51
2023-01-22T11:31:37.703Z,1.38
2023-01-22T11:34:04.921Z,1.29
2023-01-22T11:36:31.440Z,1.46
2023-01-22T11:38:57.965Z,1.68
2023-01-22T11:41:24.489Z,1.74
2023-01-22T12:23:05.149Z,0.92
2023-01-22T12:25:32.127Z,1.14
2023-01-22T12:28:01.066Z,1.02
2023-01-22T12:30:30.056Z,1.07
2023-01-22T12:32:57.292Z,1.52
2023-01-22T12:35:35.092Z,1.74
2023-01-22T12:38:06.214Z,1.45
2023-01-22T12:40:33.582Z,1.48
2023-01-22T12:43:01.471Z,1.90
2023-01-22T12:45:28.416Z,1.92
2023-01-22T12:47:55.241Z,1.56
2023-01-22T12:50:22.741Z,1.40
2023-01-22T12:52:49.624Z,1.27
2023-01-22T12:55:16.932Z,1.06
2023-01-22T12:57:47.539Z,0.93
2023-01-22T13:00:14.457Z,0.72
2023-01-22T13:02:41.616Z,0.47
2023-01-22T13:05:09.497Z,0.78
2023-01-22T13:07:36.376Z,0.87
2023-01-22T13:10:04.315Z,0.95
2023-01-22T13:12:33.384Z,0.85
2023-01-22T13:15:03.170Z,0.72
2023-01-22T13:17:30.716Z,1.03
2023-01-22T13:19:57.557Z,1.03
2023-01-22T13:22:24.858Z,1.14
2023-01-22T13:24:51.437Z,1.12
2023-01-22T13:27:18.790Z,1.19
2023-01-22T13:29:45.837Z,0.84
2023-01-22T13:32:12.510Z,0.99
2023-01-22T13:34:39.031Z,0.56
2023-01-22T13:37:05.824Z,0.38
2023-01-22T13:39:33.358Z,0.30
2023-01-22T13:41:59.893Z,0.16
2023-01-22T13:44:27.627Z,0.60
2023-01-22T13:46:54.645Z,0.50
2023-01-22T13:49:24.207Z,0.29
2023-01-22T13:51:50.990Z,0.37
2023-01-22T13:54:17.617Z,0.37
2023-01-22T13:56:46.896Z,0.08
2023-01-22T13:59:13.497Z,0.37
2023-01-22T14:01:40.163Z,0.45
2023-01-22T14:04:06.732Z,0.36
2023-01-22T14:06:35.682Z,0.55
2023-01-22T14:09:02.523Z,0.54
2023-01-22T14:11:29.230Z,0.51
2023-01-22T14:13:56.029Z,0.13
2023-01-22T14:16:26.458Z,0.33
2023-01-22T14:18:53.291Z,0.37
2023-01-22T14:21:20.205Z,0.41
2023-01-22T14:23:49.301Z,0.46
2023-01-22T14:26:17.954Z,0.49
2023-01-22T14:28:46.169Z,0.53
2023-01-22T14:31:12.933Z,0.47
2023-01-22T14:33:41.991Z,0.61
2023-01-22T14:36:08.816Z,0.28
2023-01-22T14:38:35.674Z,0.20
2023-01-22T14:41:02.472Z,0.16
2023-01-22T14:43:29.494Z,0.36
2023-01-22T14:45:56.562Z,0.60
2023-01-22T14:48:23.321Z,0.52
2023-01-22T14:50:52.326Z,0.63
2023-01-22T14:53:19.157Z,0.53
2023-01-22T14:55:45.910Z,0.62
2023-01-22T14:58:12.770Z,0.39
2023-01-22T15:00:39.683Z,0.57
2023-01-22T15:03:06.749Z,0.07
2023-01-22T15:05:35.497Z,-0.02
2023-01-22T15:08:02.384Z,0.15
2023-01-22T15:10:29.256Z,-0.04
2023-01-22T15:12:55.906Z,0.08
2023-01-22T15:15:25.279Z,0.46
2023-01-22T15:17:52.099Z,0.33
2023-01-22T15:20:21.449Z,0.45
2023-01-22T15:22:48.071Z,0.37
2023-01-22T15:25:17.032Z,0.46
2023-01-22T15:27:43.506Z,0.32
2023-01-22T15:30:10.418Z,0.39
2023-01-22T15:32:37.348Z,0.11
2023-01-22T15:35:05.884Z,-0.16
2023-01-22T15:37:32.746Z,-0.08
2023-01-22T15:39:59.395Z,-0.02
2023-01-22T15:42:25.909Z,0.04
2023-01-22T15:44:53.381Z,-0.02
2023-01-22T15:47:20.304Z,-0.23
2023-01-22T15:49:48.092Z,-0.14
2023-01-22T15:52:16.296Z,-0.10
2023-01-22T15:54:42.879Z,-0.09
2023-01-22T15:57:09.659Z,0.01
2023-01-22T15:59:38.039Z,-0.02
2023-01-22T16:02:04.556Z,0.20
2023-01-22T16:04:31.649Z,0.15
2023-01-22T16:06:58.537Z,0.12
2023-01-22T16:09:32.398Z,-0.11
2023-01-22T16:12:03.209Z,-0.23
2023-01-22T16:14:29.864Z,-0.11
2023-01-22T16:17:00.539Z,0.05
2023-01-22T16:19:28.010Z,-0.15
2023-01-22T16:21:55.265Z,-0.27
2023-01-22T16:24:25.241Z,-0.26
2023-01-22T16:26:52.005Z,-0.39
2023-01-22T16:29:18.925Z,-0.29
2023-01-22T16:31:45.850Z,-0.34
2023-01-22T16:34:12.630Z,-0.36
2023-01-22T16:36:39.935Z,-0.23
2023-01-22T16:41:57.323Z,-0.28
2023-01-22T16:44:23.961Z,-0.43
2023-01-22T16:46:54.045Z,-0.44
2023-01-22T16:49:20.819Z,-0.29
2023-01-22T16:51:47.971Z,-0.22
2023-01-22T16:54:14.901Z,-0.23
2023-01-22T16:56:41.771Z,-0.32
2023-01-22T16:59:08.685Z,-0.32
2023-01-22T17:01:37.461Z,-0.13
2023-01-22T17:04:06.130Z,-0.23
2023-01-22T17:06:34.712Z,-0.16
2023-01-22T17:09:02.041Z,-0.21
2023-01-22T17:11:33.680Z,-0.23
2023-01-22T17:14:00.267Z,0.08
2023-01-22T17:16:27.160Z,-0.11
2023-01-22T17:18:54.662Z,-0.27
2023-01-22T17:21:21.522Z,-0.14
2023-01-22T17:23:48.179Z,-0.11
2023-01-22T17:26:14.734Z,0.04
2023-01-22T17:28:42.363Z,0.08
2023-01-22T17:31:09.102Z,-0.06
2023-01-22T17:33:35.600Z,-0.22
2023-01-22T17:36:02.251Z,-0.52
2023-01-22T17:38:29.006Z,-0.33
2023-01-22T17:40:56.181Z,-0.15
2023-01-22T17:43:22.881Z,-0.14
2023-01-22T17:45:49.380Z,-0.18
2023-01-22T17:48:16.098Z,-0.09
2023-01-22T17:50:42.991Z,-0.07
2023-01-22T17:53:10.876Z,-0.01
2023-01-22T17:58:30.772Z,0.26
2023-01-22T18:00:57.636Z,0.07
2023-01-22T18:03:25.029Z,0.07
2023-01-22T18:05:52.623Z,0.33
2023-01-22T18:21:13.286Z,0.23
2023-01-22T18:23:44.152Z,0.52
2023-01-22T18:26:11.060Z,0.70
2023-01-22T18:28:38.733Z,0.52
2023-01-22T18:31:05.650Z,0.09
2023-01-22T18:33:34.509Z,0.16
2023-01-22T18:36:01.400Z,0.28
2023-01-22T18:38:28.043Z,0.12
2023-01-22T18:40:54.514Z,0.28
2023-01-22T18:46:06.797Z,0.10
2023-01-22T18:48:33.873Z,0.09
2023-01-22T18:51:02.734Z,-0.07
2023-01-22T18:53:29.579Z,0.29
2023-01-22T18:55:58.324Z,0.16
2023-01-22T18:58:25.480Z,0.04
2023-01-22T19:00:52.101Z,0.08
2023-01-22T19:03:21.404Z,0.19
2023-01-22T19:05:48.155Z,0.22
2023-01-22T19:08:21.212Z,0.19
2023-01-22T19:10:48.163Z,-0.13
2023-01-22T19:13:14.809Z,-0.06
2023-01-22T19:15:41.617Z,-0.10
2023-01-22T19:18:10.098Z,0.04
2023-01-22T19:20:37.261Z,-0.11
2023-01-22T19:23:04.343Z,-0.05
2023-01-22T19:25:34.591Z,-0.03
2023-01-22T19:28:01.480Z,-0.21
2023-01-22T19:30:33.131Z,0.06
2023-01-22T19:33:01.675Z,0.21
2023-01-22T19:35:28.487Z,0.04
2023-01-22T19:37:58.397Z,0.05
2023-01-22T19:40:36.114Z,0.36
2023-01-22T19:43:03.513Z,0.09
2023-01-22T19:45:30.273Z,0.04
2023-01-22T19:47:56.980Z,0.01
2023-01-22T19:50:23.472Z,0.36
2023-01-22T19:59:23.284Z,-0.03
2023-01-22T20:01:49.947Z,0.08
2023-01-22T20:04:16.679Z,0.06
2023-01-22T20:06:43.611Z,-0.17
2023-01-22T20:09:10.562Z,-0.23
2023-01-22T20:11:37.134Z,-0.23
2023-01-22T20:14:04.555Z,-0.16
2023-01-22T20:16:31.536Z,-0.25
2023-01-22T20:18:58.700Z,-0.23
2023-01-22T20:21:25.549Z,-0.22
2023-01-22T20:23:52.567Z,-0.43
2023-01-22T20:26:22.286Z,-0.47
2023-01-22T20:28:51.493Z,-0.04
2023-01-22T20:31:18.132Z,0.64
2023-01-22T20:33:44.720Z,0.73
2023-01-22T20:36:11.223Z,0.01
2023-01-22T20:38:38.737Z,-0.16
2023-01-22T20:41:07.877Z,-0.12
2023-01-22T20:43:36.963Z,-0.26
2023-01-22T20:46:03.605Z,-0.26
2023-01-22T20:50:59.715Z,-0.53
2023-01-22T20:53:29.009Z,-0.44
2023-01-22T20:55:55.571Z,-0.14
2023-01-22T20:58:22.535Z,-0.31
2023-01-22T21:00:50.020Z,-0.44
2023-01-22T21:03:19.101Z,-0.67
2023-01-22T21:05:45.568Z,-0.50
2023-01-22T21:08:13.560Z,-0.42
2023-01-22T21:10:40.166Z,-0.75
2023-01-22T21:13:06.716Z,-0.72
2023-01-22T21:15:33.438Z,-0.51
2023-01-22T21:18:00.285Z,-0.40
2023-01-22T21:20:27.195Z,-0.61
2023-01-22T21:22:53.905Z,-0.61
2023-01-22T21:25:20.689Z,-0.54
2023-01-22T21:27:54.626Z,-0.54
2023-01-22T21:30:21.492Z,-0.49
2023-01-22T21:32:50.891Z,-0.57
2023-01-22T21:35:17.431Z,-0.49
2023-01-22T21:37:46.453Z,-0.74
2023-01-22T21:40:14.013Z,-0.68
2023-01-22T21:42:42.581Z,-0.62
2023-01-22T21:45:15.343Z,-0.53
2023-01-22T21:47:44.231Z,-0.63
2023-01-22T21:50:11.094Z,-0.26
2023-01-22T21:52:37.746Z,-0.38
2023-01-22T21:55:05.017Z,-0.61
2023-01-22T21:57:32.315Z,-0.60
2023-01-22T21:59:58.880Z,-0.71
2023-01-22T22:02:25.972Z,-0.74
2023-01-22T22:04:52.814Z,-0.39
2023-01-22T22:07:19.637Z,-0.45
2023-01-22T22:09:46.449Z,-0.52
2023-01-22T22:12:13.427Z,-0.60
2023-01-22T22:14:40.444Z,-0.57
2023-01-22T22:17:07.070Z,-0.54
2023-01-22T22:19:33.835Z,-0.41
2023-01-22T22:22:02.880Z,-0.42
2023-01-22T22:24:29.674Z,-0.59
2023-01-22T22:26:56.471Z,-0.50
2023-01-22T22:29:23.133Z,-0.78
2023-01-22T22:31:52.319Z,-0.68
2023-01-22T22:34:21.340Z,-0.70
2023-01-22T22:36:48.623Z,-0.74
2023-01-22T22:39:15.290Z,-0.82
2023-01-22T22:41:42.001Z,-0.85
2023-01-22T22:44:09.076Z,-0.83
2023-01-22T22:46:36.256Z,-0.44
2023-01-22T22:49:04.712Z,-0.72
2023-01-22T22:51:31.225Z,-0.85
2023-01-22T22:54:00.098Z,-0.59
2023-01-22T22:56:26.670Z,-0.71
2023-01-22T22:58:53.320Z,-0.70
2023-01-22T23:01:20.063Z,-0.68
2023-01-22T23:03:46.658Z,-0.68
2023-01-22T23:06:13.197Z,-0.71
2023-01-22T23:08:40.109Z,-0.51
2023-01-22T23:11:07.004Z,-0.43
2023-01-22T23:13:33.764Z,-0.54
2023-01-22T23:16:00.328Z,-0.52
2023-01-22T23:18:27.036Z,-0.51
2023-01-22T23:20:53.683Z,-0.57
2023-01-22T23:23:22.731Z,-0.59
2023-01-22T23:25:50.116Z,-0.48
2023-01-22T23:28:16.761Z,-0.70
2023-01-22T23:30:44.008Z,-0.62
2023-01-22T23:33:14.956Z,-0.73
2023-01-22T23:35:41.788Z,-0.77
2023-01-22T23:38:09.145Z,-0.53
2023-01-22T23:40:35.587Z,-0.47
2023-01-22T23:43:04.285Z,-0.60
2023-01-22T23:45:31.069Z,-0.55
2023-01-22T23:47:57.671Z,-0.60
2023-01-22T23:50:24.261Z,-0.58
2023-01-22T23:52:51.638Z,-0.47
2023-01-22T23:55:18.195Z,-0.29
2023-01-22T23:57:45.138Z,-0.52
